Time;durP1;ratioP1;P1;durP2;ratioP2;P2;SDS_P1;SDS_P2;PMS_P1;PMS_P2;Temp;Humidity;BMP_temperature;BMP_pressure;BME280_temperature;BME280_humidity;BME280_pressure;Samples;Min_cycle;Max_cycle;Signal;HPM_P1;HPM_P2
2023/05/28 00:02:05;;;;;;;20.05;7.95;;;11.50;99.90;;;;;;5032854;28;20045;-75
2023/05/28 00:04:31;;;;;;;22.83;9.02;;;11.50;99.90;;;;;;5034064;28;20505;-75
2023/05/28 00:06:57;;;;;;;20.98;7.68;;;11.50;99.90;;;;;;5034231;28;20095;-75
2023/05/28 00:09:23;;;;;;;17.17;8.18;;;11.50;99.90;;;;;;5034109;28;20041;-75
2023/05/28 00:11:49;;;;;;;20.65;8.32;;;11.50;99.90;;;;;;5032999;28;20087;-74
2023/05/28 00:14:15;;;;;;;18.35;7.22;;;11.50;99.90;;;;;;5032655;28;20077;-75
2023/05/28 00:16:43;;;;;;;19.55;7.78;;;11.30;99.90;;;;;;5032527;28;20442;-75
2023/05/28 00:19:09;;;;;;;20.73;8.18;;;11.20;99.90;;;;;;5032511;28;20045;-75
2023/05/28 00:21:36;;;;;;;20.05;8.13;;;11.20;99.90;;;;;;5033598;28;20052;-75
2023/05/28 00:24:03;;;;;;;18.75;7.82;;;11.20;99.90;;;;;;5032656;28;20049;-76
2023/05/28 00:26:29;;;;;;;17.63;7.38;;;11.20;99.90;;;;;;5032429;28;20045;-75
2023/05/28 00:28:55;;;;;;;18.90;7.85;;;11.10;99.90;;;;;;4999910;28;20460;-75
2023/05/28 00:31:21;;;;;;;21.25;8.57;;;11.10;99.90;;;;;;5032274;28;20049;-75
2023/05/28 00:33:47;;;;;;;20.23;8.40;;;11.10;99.90;;;;;;5015605;28;20041;-75
2023/05/28 00:36:13;;;;;;;18.27;7.93;;;11.10;99.90;;;;;;5032189;28;20184;-74
2023/05/28 00:38:41;;;;;;;19.45;7.85;;;11.00;99.90;;;;;;5015774;28;20045;-75
2023/05/28 00:41:07;;;;;;;19.83;8.02;;;11.00;99.90;;;;;;5032310;28;20056;-75
2023/05/28 00:43:35;;;;;;;19.77;8.15;;;10.90;99.90;;;;;;5032115;28;20121;-75
2023/05/28 00:46:03;;;;;;;17.77;7.10;;;10.90;99.90;;;;;;5032338;28;20139;-74
2023/05/28 00:48:29;;;;;;;19.10;7.53;;;10.90;99.90;;;;;;5015668;28;20049;-75
2023/05/28 00:50:56;;;;;;;16.25;6.57;;;11.00;99.90;;;;;;5032036;28;20045;-74
2023/05/28 00:53:23;;;;;;;20.40;7.82;;;11.00;99.90;;;;;;5031996;28;20046;-74
2023/05/28 00:55:52;;;;;;;18.90;6.90;;;11.00;99.90;;;;;;5015457;28;20049;-74
2023/05/28 00:58:19;;;;;;;22.75;8.10;;;11.00;99.90;;;;;;5032026;28;20128;-74
2023/05/28 01:00:46;;;;;;;18.75;7.80;;;11.00;99.90;;;;;;5032257;28;20044;-74
2023/05/28 01:03:12;;;;;;;17.88;7.70;;;10.90;99.90;;;;;;5031718;28;20142;-75
2023/05/28 01:05:38;;;;;;;16.20;7.07;;;11.00;99.90;;;;;;5031686;28;20045;-75
2023/05/28 01:08:06;;;;;;;19.05;8.52;;;11.00;99.90;;;;;;5033344;28;20037;-74
2023/05/28 01:10:34;;;;;;;17.63;7.75;;;11.00;99.90;;;;;;5031818;28;20405;-74
2023/05/28 01:13:02;;;;;;;16.40;7.20;;;10.90;99.90;;;;;;5032333;28;20040;-75
2023/05/28 01:15:28;;;;;;;15.73;6.35;;;10.80;99.90;;;;;;5031959;28;20120;-74
2023/05/28 01:17:59;;;;;;;17.08;6.70;;;10.80;99.90;;;;;;5015170;28;20053;-74
2023/05/28 01:20:30;;;;;;;20.15;7.75;;;10.90;99.90;;;;;;5015191;28;20045;-74
2023/05/28 01:23:06;;;;;;;18.10;8.00;;;10.90;99.90;;;;;;5031878;28;20041;-74
2023/05/28 01:25:33;;;;;;;19.05;8.68;;;10.90;99.90;;;;;;5031663;28;20120;-74
2023/05/28 01:28:10;;;;;;;18.98;8.40;;;10.80;99.90;;;;;;5032976;28;20091;-74
2023/05/28 01:30:35;;;;;;;17.60;8.65;;;10.70;99.90;;;;;;5031506;28;20045;-75
2023/05/28 01:33:01;;;;;;;23.38;8.60;;;10.60;99.90;;;;;;5015140;28;20060;-74
2023/05/28 01:35:27;;;;;;;19.52;9.45;;;10.50;99.90;;;;;;5031454;28;20433;-74
2023/05/28 01:37:58;;;;;;;23.02;9.07;;;10.40;99.90;;;;;;5031726;28;20120;-74
2023/05/28 01:40:25;;;;;;;18.92;8.82;;;10.30;99.90;;;;;;5031654;28;20048;-74
2023/05/28 01:42:55;;;;;;;22.27;9.90;;;10.20;99.90;;;;;;5015531;28;20500;-74
2023/05/28 01:45:21;;;;;;;22.95;10.40;;;10.20;99.90;;;;;;5031755;28;20528;-74
2023/05/28 01:47:48;;;;;;;23.17;9.73;;;10.20;99.90;;;;;;5034658;28;20106;-74
2023/05/28 01:50:14;;;;;;;23.90;9.73;;;10.10;99.90;;;;;;5035298;28;20515;-74
2023/05/28 01:52:40;;;;;;;22.55;10.40;;;10.10;99.90;;;;;;5035574;28;20041;-74
2023/05/28 01:55:08;;;;;;;22.75;10.27;;;10.10;99.90;;;;;;5019075;28;20048;-75
2023/05/28 01:57:35;;;;;;;23.05;10.35;;;10.20;99.90;;;;;;5018710;28;20121;-75
2023/05/28 02:00:00;;;;;;;24.70;10.25;;;10.10;99.90;;;;;;5035166;28;20103;-75
2023/05/28 02:02:26;;;;;;;21.30;9.63;;;10.20;99.90;;;;;;5018529;28;20433;-75
2023/05/28 02:04:53;;;;;;;23.88;9.55;;;10.20;99.90;;;;;;5018694;28;20412;-75
2023/05/28 02:07:19;;;;;;;20.48;9.30;;;10.20;99.90;;;;;;5035024;28;20049;-75
2023/05/28 02:09:45;;;;;;;26.15;10.15;;;10.30;99.90;;;;;;5035059;28;20060;-75
2023/05/28 02:12:11;;;;;;;22.80;10.13;;;10.30;99.90;;;;;;5034795;28;20044;-75
2023/05/28 02:14:37;;;;;;;21.83;9.10;;;10.30;99.90;;;;;;5035192;28;20034;-74
2023/05/28 02:17:03;;;;;;;20.38;8.43;;;10.40;99.90;;;;;;5035872;28;20049;-75
2023/05/28 02:19:29;;;;;;;24.20;9.60;;;10.40;99.90;;;;;;5034921;28;20537;-75
2023/05/28 02:21:55;;;;;;;25.25;10.25;;;10.40;99.90;;;;;;5034745;28;20100;-75
2023/05/28 02:24:22;;;;;;;21.88;10.60;;;10.40;99.90;;;;;;5034937;28;20050;-74
2023/05/28 02:26:47;;;;;;;25.15;10.57;;;10.30;99.90;;;;;;5018454;28;20076;-74
2023/05/28 02:29:13;;;;;;;24.75;10.00;;;10.30;99.90;;;;;;5034932;28;20037;-75
2023/05/28 02:31:40;;;;;;;23.60;10.18;;;10.30;99.90;;;;;;5034603;28;20550;-74
2023/05/28 02:34:07;;;;;;;24.48;10.73;;;10.30;99.90;;;;;;5001730;28;20089;-74
2023/05/28 02:36:33;;;;;;;24.88;10.65;;;10.30;99.90;;;;;;5034404;28;20041;-75
2023/05/28 02:38:59;;;;;;;24.30;10.82;;;10.20;99.90;;;;;;5034426;28;20180;-75
2023/05/28 02:41:26;;;;;;;22.17;10.60;;;10.20;99.90;;;;;;5035917;28;20045;-74
2023/05/28 02:43:53;;;;;;;23.75;10.70;;;10.30;99.90;;;;;;5034357;28;20045;-75
2023/05/28 02:46:18;;;;;;;22.15;10.60;;;10.30;99.90;;;;;;5034274;28;20054;-75
2023/05/28 02:48:45;;;;;;;22.67;10.50;;;10.40;99.90;;;;;;5034568;28;20053;-74
2023/05/28 02:51:11;;;;;;;23.25;10.73;;;10.40;99.90;;;;;;5017787;28;20124;-74
2023/05/28 02:53:37;;;;;;;22.52;10.55;;;10.40;99.90;;;;;;5035401;28;20041;-74
2023/05/28 02:56:03;;;;;;;23.20;10.93;;;10.40;99.90;;;;;;5035293;28;20030;-74
2023/05/28 02:58:30;;;;;;;26.23;11.05;;;10.40;99.90;;;;;;5035284;28;20444;-74
2023/05/28 03:00:56;;;;;;;25.35;11.75;;;10.30;99.90;;;;;;5017858;28;20489;-74
2023/05/28 03:03:22;;;;;;;26.35;11.38;;;10.30;99.90;;;;;;5017479;28;20041;-75
2023/05/28 03:05:50;;;;;;;24.95;11.80;;;10.30;99.90;;;;;;5033838;28;20045;-75
2023/05/28 03:08:16;;;;;;;25.58;11.23;;;10.30;99.90;;;;;;5034174;28;20541;-75
2023/05/28 03:10:42;;;;;;;27.30;12.10;;;10.30;99.90;;;;;;5033819;28;20129;-74
2023/05/28 03:13:08;;;;;;;25.83;11.25;;;10.30;99.90;;;;;;5033721;28;20132;-75
2023/05/28 03:15:35;;;;;;;28.98;11.85;;;10.30;99.90;;;;;;5033848;28;20033;-74
2023/05/28 03:18:01;;;;;;;25.70;11.23;;;10.30;99.90;;;;;;5033591;28;20065;-74
2023/05/28 03:20:28;;;;;;;25.75;11.07;;;10.40;99.90;;;;;;5033918;28;20103;-75
2023/05/28 03:22:57;;;;;;;27.17;11.88;;;10.40;99.90;;;;;;5033905;28;20045;-75
2023/05/28 03:25:24;;;;;;;26.15;10.80;;;10.40;99.90;;;;;;5034884;28;20045;-75
2023/05/28 03:27:52;;;;;;;23.27;11.38;;;10.40;99.90;;;;;;5033755;28;20124;-75
2023/05/28 03:30:18;;;;;;;22.80;11.13;;;10.40;99.90;;;;;;5017316;28;20052;-75
2023/05/28 03:32:44;;;;;;;26.10;11.18;;;10.40;99.90;;;;;;5033721;28;20034;-75
2023/05/28 03:35:10;;;;;;;23.38;11.15;;;10.40;99.90;;;;;;5034559;28;20091;-75
2023/05/28 03:37:35;;;;;;;26.20;11.00;;;10.40;99.90;;;;;;5033379;28;20116;-75
2023/05/28 03:40:04;;;;;;;22.08;10.27;;;10.40;99.90;;;;;;5033277;28;20080;-75
2023/05/28 03:42:30;;;;;;;24.23;11.38;;;10.40;99.90;;;;;;5033511;28;20520;-75
2023/05/28 03:44:56;;;;;;;23.27;10.35;;;10.40;99.90;;;;;;5034508;28;20077;-75
2023/05/28 03:47:22;;;;;;;22.77;10.80;;;10.50;99.90;;;;;;5033162;28;20128;-75
2023/05/28 03:49:48;;;;;;;23.92;10.68;;;10.50;99.90;;;;;;5033412;28;20034;-75
2023/05/28 03:52:14;;;;;;;27.55;11.98;;;10.50;99.90;;;;;;5033353;28;20064;-75
2023/05/28 03:54:40;;;;;;;24.98;11.30;;;10.60;99.90;;;;;;5033202;28;20481;-75
2023/05/28 03:57:06;;;;;;;19.50;8.93;;;10.60;99.90;;;;;;5032944;28;20124;-75
2023/05/28 03:59:32;;;;;;;21.00;9.43;;;10.70;99.90;;;;;;5016432;28;20072;-74
2023/05/28 04:01:57;;;;;;;19.73;9.52;;;10.70;99.90;;;;;;5032903;28;20076;-74
2023/05/28 04:04:23;;;;;;;20.38;9.57;;;10.70;99.90;;;;;;5033038;28;20045;-75
2023/05/28 04:06:49;;;;;;;22.02;10.20;;;10.70;99.90;;;;;;5016561;28;20129;-75
2023/05/28 04:09:15;;;;;;;22.63;10.23;;;10.80;99.90;;;;;;5033793;28;20033;-74
2023/05/28 04:11:40;;;;;;;23.42;10.60;;;10.80;99.90;;;;;;5016358;28;20144;-74
2023/05/28 04:14:09;;;;;;;23.17;10.20;;;10.80;99.90;;;;;;5033925;28;20038;-75
2023/05/28 04:16:35;;;;;;;22.75;10.13;;;10.80;99.90;;;;;;5032676;28;20046;-74
2023/05/28 04:19:00;;;;;;;19.98;9.85;;;10.90;99.90;;;;;;5033877;28;20124;-75
2023/05/28 04:21:28;;;;;;;24.20;10.20;;;10.90;99.90;;;;;;5032534;28;20049;-74
2023/05/28 04:23:54;;;;;;;20.02;10.07;;;10.90;99.90;;;;;;5000248;28;20037;-74
2023/05/28 04:26:20;;;;;;;25.13;10.45;;;10.90;99.90;;;;;;5032299;28;20056;-74
2023/05/28 04:28:46;;;;;;;24.40;10.43;;;10.90;99.90;;;;;;5032356;28;20042;-75
2023/05/28 04:31:12;;;;;;;22.75;11.00;;;10.90;99.90;;;;;;5032636;28;20247;-74
2023/05/28 04:33:38;;;;;;;21.73;10.25;;;10.90;99.90;;;;;;5032335;28;20120;-75
2023/05/28 04:36:07;;;;;;;23.13;10.80;;;10.90;99.90;;;;;;5032512;28;20460;-74
2023/05/28 04:38:33;;;;;;;25.10;10.23;;;10.90;99.90;;;;;;5032372;28;20049;-75
2023/05/28 04:40:59;;;;;;;25.33;10.80;;;10.90;99.90;;;;;;5032239;28;20053;-75
2023/05/28 04:43:26;;;;;;;24.90;10.50;;;10.90;99.90;;;;;;5015621;28;20052;-74
2023/05/28 04:45:55;;;;;;;26.88;12.00;;;10.90;99.90;;;;;;5032119;28;20084;-74
2023/05/28 04:48:20;;;;;;;24.15;11.05;;;11.00;99.90;;;;;;5015973;28;20046;-74
2023/05/28 04:50:47;;;;;;;22.85;10.88;;;11.00;99.90;;;;;;5032149;28;20049;-75
2023/05/28 04:53:13;;;;;;;24.08;11.18;;;11.00;99.90;;;;;;5015748;28;20152;-75
2023/05/28 04:55:40;;;;;;;23.90;11.73;;;11.00;99.90;;;;;;5032221;28;20497;-75
2023/05/28 04:58:06;;;;;;;24.75;11.25;;;11.00;99.90;;;;;;5032222;28;20461;-75
2023/05/28 05:00:34;;;;;;;23.90;11.18;;;11.10;99.90;;;;;;5032237;28;20444;-75
2023/05/28 05:03:00;;;;;;;22.58;11.35;;;11.10;99.90;;;;;;5031896;28;20052;-74
2023/05/28 05:05:26;;;;;;;23.05;10.90;;;11.10;99.90;;;;;;5015622;28;20501;-74
2023/05/28 05:07:52;;;;;;;25.23;10.95;;;11.20;99.90;;;;;;5015450;28;20131;-75
2023/05/28 05:10:18;;;;;;;23.92;11.70;;;11.20;99.90;;;;;;5032961;28;20096;-75
2023/05/28 05:12:44;;;;;;;23.02;10.85;;;11.30;99.90;;;;;;5032993;28;20037;-75
2023/05/28 05:15:10;;;;;;;26.50;11.27;;;11.40;99.90;;;;;;5031767;28;20042;-75
2023/05/28 05:17:36;;;;;;;22.15;11.30;;;11.40;99.90;;;;;;5015215;28;20051;-74
2023/05/28 05:20:06;;;;;;;26.08;11.65;;;11.40;99.90;;;;;;5031603;28;20498;-74
2023/05/28 05:22:32;;;;;;;26.90;10.93;;;11.50;99.90;;;;;;5034648;28;20045;-74
2023/05/28 05:24:57;;;;;;;25.60;11.27;;;11.80;99.90;;;;;;5019690;28;20512;-74
2023/05/28 05:27:23;;;;;;;23.63;11.00;;;11.90;99.90;;;;;;5037073;28;20042;-75
2023/05/28 05:29:49;;;;;;;24.38;11.10;;;11.90;99.90;;;;;;5036879;28;20057;-75
2023/05/28 05:32:15;;;;;;;23.05;10.73;;;12.00;99.90;;;;;;5035943;28;20042;-75
2023/05/28 05:34:40;;;;;;;21.55;10.50;;;12.10;99.90;;;;;;5035854;28;20053;-75
2023/05/28 05:37:06;;;;;;;21.52;10.13;;;12.30;99.90;;;;;;5035493;28;20041;-75
2023/05/28 05:39:32;;;;;;;23.63;10.55;;;12.30;99.90;;;;;;5035835;28;20037;-74
2023/05/28 05:41:59;;;;;;;21.73;9.95;;;12.40;99.90;;;;;;5036684;28;20034;-75
2023/05/28 05:44:25;;;;;;;21.73;10.23;;;12.50;99.90;;;;;;5035697;28;20524;-75
2023/05/28 05:46:50;;;;;;;22.13;10.43;;;12.70;99.90;;;;;;5035407;28;20080;-75
2023/05/28 05:49:16;;;;;;;23.05;9.52;;;13.50;99.90;;;;;;5035389;28;20481;-75
2023/05/28 05:51:42;;;;;;;20.73;9.27;;;13.90;99.90;;;;;;5035291;28;20038;-75
2023/05/28 05:54:08;;;;;;;18.08;8.30;;;14.10;99.90;;;;;;5035252;28;20126;-75
2023/05/28 05:56:34;;;;;;;18.83;8.63;;;14.60;99.90;;;;;;5035531;28;20114;-75
2023/05/28 05:59:00;;;;;;;18.48;7.60;;;15.40;99.90;;;;;;5002638;28;20464;-75
2023/05/28 06:01:26;;;;;;;17.02;7.82;;;16.10;99.90;;;;;;5035420;28;20378;-75
2023/05/28 06:03:52;;;;;;;16.20;7.40;;;16.70;99.90;;;;;;5036369;28;20041;-75
2023/05/28 06:06:18;;;;;;;17.70;7.55;;;16.60;99.90;;;;;;5018504;28;20052;-75
2023/05/28 06:08:43;;;;;;;15.25;6.65;;;16.70;99.90;;;;;;5035377;28;20486;-75
2023/05/28 06:11:09;;;;;;;14.40;6.95;;;16.90;99.90;;;;;;5018015;28;20061;-75
2023/05/28 06:13:37;;;;;;;15.88;6.88;;;16.70;99.90;;;;;;5034777;28;20037;-75
2023/05/28 06:16:04;;;;;;;16.35;6.30;;;16.60;99.90;;;;;;5035970;28;20057;-74
2023/05/28 06:18:30;;;;;;;15.30;6.28;;;16.90;99.90;;;;;;5035111;28;20045;-75
2023/05/28 06:20:57;;;;;;;13.38;5.70;;;17.00;99.90;;;;;;5035183;28;20054;-75
2023/05/28 06:23:23;;;;;;;15.40;6.07;;;17.60;99.90;;;;;;5018233;28;20049;-76
2023/05/28 06:25:48;;;;;;;14.07;6.13;;;17.40;99.90;;;;;;5034960;28;20045;-76
2023/05/28 06:28:15;;;;;;;12.95;5.68;;;17.70;99.90;;;;;;5036247;28;20096;-75
2023/05/28 06:30:41;;;;;;;13.98;6.28;;;17.50;99.90;;;;;;5036026;28;20041;-76
2023/05/28 06:33:07;;;;;;;17.15;5.72;;;16.90;99.90;;;;;;5034336;28;20041;-76
2023/05/28 06:35:33;;;;;;;15.68;5.80;;;17.10;99.90;;;;;;5018305;28;20064;-76
2023/05/28 06:37:59;;;;;;;15.52;6.03;;;17.00;99.90;;;;;;5034530;28;20104;-76
2023/05/28 06:40:25;;;;;;;14.57;6.25;;;17.10;99.90;;;;;;5035683;28;20053;-76
2023/05/28 06:42:51;;;;;;;16.08;5.95;;;17.00;99.90;;;;;;5035650;28;20076;-76
2023/05/28 06:45:18;;;;;;;14.30;5.75;;;16.90;99.90;;;;;;5035667;28;20033;-75
2023/05/28 06:47:47;;;;;;;13.02;5.93;;;17.00;99.90;;;;;;5034565;28;20045;-76
2023/05/28 06:50:13;;;;;;;13.77;5.72;;;17.20;99.90;;;;;;5017917;28;20046;-76
2023/05/28 06:52:39;;;;;;;16.08;5.97;;;17.40;99.90;;;;;;5034379;28;20390;-76
2023/05/28 06:55:05;;;;;;;13.38;5.97;;;17.70;99.90;;;;;;5034458;28;20038;-75
2023/05/28 06:57:33;;;;;;;12.82;5.70;;;17.70;99.90;;;;;;5034309;28;20076;-76
2023/05/28 06:59:59;;;;;;;13.57;5.47;;;18.30;99.90;;;;;;5035377;28;20048;-76
2023/05/28 07:02:25;;;;;;;14.65;5.90;;;18.90;99.90;;;;;;5035524;28;20037;-66
2023/05/28 07:04:51;;;;;;;14.43;6.00;;;19.30;99.90;;;;;;5034397;28;20049;-66
2023/05/28 07:07:17;;;;;;;13.30;5.72;;;19.30;99.60;;;;;;5017712;28;20120;-66
2023/05/28 07:09:43;;;;;;;16.52;6.30;;;19.40;99.60;;;;;;5017520;28;20045;-66
2023/05/28 07:12:08;;;;;;;14.13;5.65;;;19.70;97.40;;;;;;5035356;28;20038;-66
2023/05/28 07:14:34;;;;;;;14.82;5.88;;;20.10;98.00;;;;;;5034115;28;20398;-66
2023/05/28 07:17:00;;;;;;;15.05;6.00;;;20.00;97.70;;;;;;5033499;28;20049;-66
2023/05/28 07:19:26;;;;;;;17.38;5.70;;;19.70;98.40;;;;;;5033996;28;20091;-66
2023/05/28 07:21:52;;;;;;;12.63;5.85;;;19.90;98.90;;;;;;5033957;28;20084;-66
2023/05/28 07:24:17;;;;;;;14.65;5.75;;;19.70;98.70;;;;;;5017083;28;20052;-66
2023/05/28 07:26:44;;;;;;;14.65;5.50;;;19.80;99.00;;;;;;5033569;28;20087;-66
2023/05/28 07:29:13;;;;;;;16.05;5.75;;;19.80;97.20;;;;;;5033433;28;20053;-65
2023/05/28 07:31:38;;;;;;;14.75;5.68;;;19.00;97.00;;;;;;5033339;28;20041;-66
2023/05/28 07:34:05;;;;;;;13.85;5.75;;;19.30;95.60;;;;;;5033764;28;20048;-66
2023/05/28 07:36:31;;;;;;;13.63;5.30;;;19.50;95.70;;;;;;5034467;28;20045;-65
2023/05/28 07:38:57;;;;;;;13.18;5.30;;;19.70;96.30;;;;;;5034867;28;20037;-66
2023/05/28 07:41:23;;;;;;;11.38;4.97;;;20.40;93.20;;;;;;5016760;28;20049;-66
2023/05/28 07:43:48;;;;;;;12.15;5.10;;;20.70;93.80;;;;;;5032356;28;20045;-66
2023/05/28 07:46:16;;;;;;;11.82;5.63;;;21.10;93.70;;;;;;5033469;28;20060;-66
2023/05/28 07:48:43;;;;;;;12.25;5.53;;;21.10;92.40;;;;;;5033468;28;20048;-66
2023/05/28 07:51:10;;;;;;;14.77;5.55;;;21.30;91.40;;;;;;5032964;28;20139;-66
2023/05/28 07:53:36;;;;;;;13.13;5.72;;;21.00;90.90;;;;;;5033381;28;20481;-66
2023/05/28 07:56:02;;;;;;;13.85;5.47;;;20.90;92.30;;;;;;5034493;28;20117;-66
2023/05/28 07:58:27;;;;;;;14.50;6.00;;;21.00;90.90;;;;;;5034572;28;20039;-66
2023/05/28 08:00:53;;;;;;;12.13;5.30;;;21.00;90.60;;;;;;5033162;28;20046;-66
2023/05/28 08:03:19;;;;;;;12.98;6.10;;;20.80;90.30;;;;;;5032796;28;20085;-66
2023/05/28 08:05:45;;;;;;;13.02;5.45;;;21.00;90.20;;;;;;5032921;28;20056;-66
2023/05/28 08:08:10;;;;;;;11.77;5.63;;;21.40;89.10;;;;;;5032815;28;20538;-66
2023/05/28 08:10:36;;;;;;;14.27;5.80;;;21.20;87.30;;;;;;5033869;28;20049;-66
2023/05/28 08:13:02;;;;;;;15.02;6.28;;;20.90;85.00;;;;;;5032642;28;20124;-66
2023/05/28 08:15:28;;;;;;;12.38;5.70;;;20.90;85.00;;;;;;5032641;28;20040;-66
2023/05/28 08:17:54;;;;;;;13.25;5.78;;;21.20;87.50;;;;;;5016115;28;20409;-66
2023/05/28 08:20:22;;;;;;;13.18;5.70;;;21.10;86.90;;;;;;5015960;28;20053;-66
2023/05/28 08:22:48;;;;;;;11.57;5.88;;;21.40;88.50;;;;;;5033822;28;20116;-66
2023/05/28 08:25:14;;;;;;;12.93;5.63;;;21.50;85.20;;;;;;5032723;28;20045;-66
2023/05/28 08:27:40;;;;;;;10.93;4.90;;;21.80;86.80;;;;;;5032672;28;20052;-66
2023/05/28 08:30:06;;;;;;;12.68;5.57;;;21.90;83.70;;;;;;5032523;28;20132;-66
2023/05/28 08:32:32;;;;;;;12.52;5.97;;;21.50;82.40;;;;;;5032411;28;20493;-65
2023/05/28 08:34:59;;;;;;;12.40;5.72;;;21.20;83.20;;;;;;5015956;28;20049;-66
2023/05/28 08:37:25;;;;;;;11.85;5.88;;;21.60;82.80;;;;;;5032554;28;20099;-66
2023/05/28 08:39:51;;;;;;;10.65;4.93;;;21.60;85.10;;;;;;5032130;28;20049;-66
2023/05/28 08:42:17;;;;;;;13.82;5.80;;;21.60;84.70;;;;;;5032250;28;20400;-66
2023/05/28 08:44:43;;;;;;;10.90;5.78;;;21.50;80.80;;;;;;5032487;28;20124;-65
2023/05/28 08:47:09;;;;;;;12.85;5.82;;;20.70;84.30;;;;;;5032093;28;20079;-65
2023/05/28 08:49:54;;;;;;;12.57;5.70;;;21.40;85.50;;;;;;5031962;28;20049;-65
2023/05/28 08:52:23;;;;;;;11.40;5.78;;;21.30;84.40;;;;;;5032047;28;20048;-66
2023/05/28 08:54:49;;;;;;;12.25;5.93;;;21.00;82.70;;;;;;5033051;28;20087;-65
2023/05/28 08:57:15;;;;;;;11.57;5.40;;;21.40;83.00;;;;;;5033417;28;20037;-66
2023/05/28 08:59:44;;;;;;;13.30;6.20;;;21.30;81.90;;;;;;4999373;28;20033;-66
2023/05/28 09:02:11;;;;;;;12.77;5.68;;;21.10;80.10;;;;;;5032116;28;20057;-66
2023/05/28 09:04:37;;;;;;;12.20;5.65;;;21.50;82.30;;;;;;5031993;28;20052;-66
2023/05/28 09:07:03;;;;;;;13.35;5.60;;;21.70;80.60;;;;;;5031804;28;20120;-66
2023/05/28 09:09:29;;;;;;;12.82;5.97;;;22.10;81.60;;;;;;5031801;28;20076;-66
2023/05/28 09:12:05;;;;;;;13.48;6.35;;;22.40;79.20;;;;;;5031710;28;20564;-66
2023/05/28 09:14:40;;;;;;;13.02;6.20;;;22.40;76.60;;;;;;5015591;28;20041;-66
2023/05/28 09:17:09;;;;;;;11.82;6.00;;;22.40;76.50;;;;;;5032988;28;20057;-67
2023/05/28 09:19:36;;;;;;;12.63;6.40;;;22.20;76.20;;;;;;5031664;28;20053;-67
2023/05/28 09:22:03;;;;;;;12.40;5.40;;;22.20;79.10;;;;;;5031653;28;20171;-66
2023/05/28 09:24:33;;;;;;;13.15;5.88;;;22.10;79.60;;;;;;5031677;28;20050;-66
2023/05/28 09:27:00;;;;;;;11.82;6.07;;;22.20;76.60;;;;;;5033157;28;20050;-66
2023/05/28 09:29:27;;;;;;;12.98;6.28;;;22.40;76.80;;;;;;5031620;28;20095;-66
2023/05/28 09:32:00;;;;;;;9.98;5.60;;;22.50;76.40;;;;;;5031587;28;20046;-66
2023/05/28 09:34:27;;;;;;;12.95;6.03;;;22.50;76.20;;;;;;5031742;28;20048;-66
2023/05/28 09:36:59;;;;;;;13.95;6.20;;;22.30;77.30;;;;;;5031725;28;20124;-66
2023/05/28 09:39:26;;;;;;;14.10;5.72;;;22.40;74.70;;;;;;5031812;28;20046;-66
2023/05/28 09:42:03;;;;;;;11.95;5.82;;;22.50;75.90;;;;;;5031842;28;20046;-66
2023/05/28 09:44:33;;;;;;;13.93;6.00;;;22.80;76.20;;;;;;5031510;28;20101;-66
2023/05/28 09:46:59;;;;;;;13.40;6.60;;;22.80;76.10;;;;;;5031914;28;20107;-66
2023/05/28 09:49:29;;;;;;;11.85;6.10;;;23.00;75.10;;;;;;5032935;28;20034;-66
2023/05/28 09:51:57;;;;;;;11.85;5.80;;;22.60;75.10;;;;;;4990755;28;20050;-66
2023/05/28 09:54:28;;;;;;;12.88;6.32;;;22.40;77.50;;;;;;5012317;28;20446;-66
2023/05/28 09:56:58;;;;;;;10.82;5.93;;;22.50;74.40;;;;;;5011718;28;20081;-66
2023/05/28 09:59:25;;;;;;;13.93;6.07;;;22.50;75.20;;;;;;5013280;28;20042;-66
2023/05/28 10:01:58;;;;;;;12.13;5.80;;;22.40;74.80;;;;;;5012947;28;20092;-66
2023/05/28 10:04:34;;;;;;;11.65;5.93;;;22.50;75.50;;;;;;5011940;28;20081;-66
2023/05/28 10:07:00;;;;;;;13.35;5.60;;;22.70;72.70;;;;;;4992265;28;20054;-66
2023/05/28 10:09:27;;;;;;;12.63;5.72;;;22.70;74.80;;;;;;4995701;28;20050;-66
2023/05/28 10:12:12;;;;;;;13.23;6.03;;;22.90;71.90;;;;;;4995986;28;20513;-66
2023/05/28 10:14:40;;;;;;;13.15;5.78;;;22.60;69.40;;;;;;4995570;28;20096;-67
2023/05/28 10:17:09;;;;;;;10.30;5.40;;;22.80;72.00;;;;;;4995387;28;20094;-66
2023/05/28 10:19:36;;;;;;;12.98;5.30;;;23.00;71.10;;;;;;4995724;28;20097;-66
2023/05/28 10:22:02;;;;;;;11.52;5.63;;;23.10;71.10;;;;;;4995477;28;20129;-66
2023/05/28 10:24:28;;;;;;;10.63;5.43;;;23.30;67.90;;;;;;4995762;28;20490;-68
2023/05/28 10:26:55;;;;;;;13.60;5.28;;;23.20;67.70;;;;;;4995367;28;20047;-67
2023/05/28 10:29:20;;;;;;;11.23;5.35;;;23.30;66.90;;;;;;4996595;28;20425;-66
2023/05/28 10:32:03;;;;;;;12.60;5.22;;;23.30;66.30;;;;;;4995204;28;20050;-66
2023/05/28 10:34:33;;;;;;;12.48;5.50;;;23.40;64.60;;;;;;4979212;28;20050;-65
2023/05/28 10:37:23;;;;;;;11.98;5.60;;;23.30;63.50;;;;;;4995349;28;20505;-67
2023/05/28 10:39:48;;;;;;;11.35;5.30;;;23.40;64.60;;;;;;4996375;28;20046;-66
2023/05/28 10:42:18;;;;;;;10.98;5.20;;;23.70;63.00;;;;;;4995028;28;20049;-67
2023/05/28 10:45:07;;;;;;;11.55;5.45;;;23.70;60.90;;;;;;4995142;28;20038;-66
2023/05/28 10:47:33;;;;;;;14.43;5.55;;;23.80;59.20;;;;;;4994970;28;20053;-66
2023/05/28 10:50:08;;;;;;;11.00;4.75;;;23.80;58.60;;;;;;4994922;28;20076;-66
2023/05/28 10:52:35;;;;;;;11.70;5.30;;;23.90;58.10;;;;;;4994932;28;20070;-66
2023/05/28 10:55:08;;;;;;;10.52;4.95;;;24.00;58.10;;;;;;4994812;28;20041;-66
2023/05/28 10:57:45;;;;;;;11.98;5.05;;;24.20;55.90;;;;;;4994846;28;20038;-66
2023/05/28 11:00:15;;;;;;;10.82;5.43;;;23.90;54.20;;;;;;4994935;28;20442;-65
2023/05/28 11:02:47;;;;;;;11.35;5.45;;;23.90;52.60;;;;;;4996234;28;20097;-66
2023/05/28 11:05:12;;;;;;;10.73;4.90;;;23.50;54.80;;;;;;5000430;28;20065;-66
2023/05/28 11:07:42;;;;;;;10.50;4.90;;;23.50;56.10;;;;;;5014182;28;20050;-66
2023/05/28 11:10:14;;;;;;;10.43;4.70;;;23.40;56.00;;;;;;5014101;28;20137;-66
2023/05/28 11:12:41;;;;;;;11.10;5.32;;;23.50;54.60;;;;;;5014342;28;20077;-65
2023/05/28 11:15:12;;;;;;;8.77;4.53;;;23.30;54.30;;;;;;5014001;28;20096;-66
2023/05/28 11:17:42;;;;;;;10.80;5.40;;;23.40;53.30;;;;;;5013892;28;20054;-65
2023/05/28 11:20:28;;;;;;;10.35;4.93;;;23.60;55.00;;;;;;5013038;28;20049;-65
2023/05/28 11:22:55;;;;;;;9.60;5.07;;;23.80;52.70;;;;;;5013802;28;20049;-65
2023/05/28 11:25:22;;;;;;;12.35;5.70;;;23.70;52.50;;;;;;5015400;28;20466;-66
2023/05/28 11:27:50;;;;;;;10.32;5.22;;;23.60;52.60;;;;;;4997624;28;20041;-65
2023/05/28 11:30:17;;;;;;;10.77;5.15;;;23.30;52.40;;;;;;5013711;28;20124;-66
2023/05/28 11:32:45;;;;;;;11.25;5.20;;;23.30;53.10;;;;;;5014987;28;20046;-66
2023/05/28 11:35:12;;;;;;;9.50;4.80;;;23.10;54.20;;;;;;5015149;28;20074;-65
2023/05/28 11:37:39;;;;;;;9.25;4.63;;;23.00;54.00;;;;;;5015102;28;20034;-66
2023/05/28 11:40:10;;;;;;;10.85;4.68;;;23.10;53.70;;;;;;5013554;28;20049;-65
2023/05/28 11:42:37;;;;;;;8.23;4.35;;;23.30;54.60;;;;;;5013481;28;20060;-66
2023/05/28 11:45:05;;;;;;;8.82;4.57;;;23.50;52.90;;;;;;5015028;28;20053;-65
2023/05/28 11:47:35;;;;;;;8.68;4.60;;;23.30;52.80;;;;;;5014652;28;20045;-66
2023/05/28 11:50:07;;;;;;;10.45;4.63;;;23.30;52.60;;;;;;4997146;28;20049;-66
2023/05/28 11:52:33;;;;;;;7.30;4.20;;;23.30;50.80;;;;;;5013415;28;20046;-65
2023/05/28 11:55:01;;;;;;;10.00;4.60;;;23.30;51.40;;;;;;5013444;28;20061;-66
2023/05/28 11:57:28;;;;;;;7.90;4.40;;;23.30;50.30;;;;;;5013275;28;20042;-65
2023/05/28 12:00:11;;;;;;;9.20;4.13;;;23.40;49.30;;;;;;5014451;28;20390;-66
2023/05/28 12:02:48;;;;;;;8.65;4.20;;;23.50;50.30;;;;;;5013192;28;20084;-66
2023/05/28 12:05:15;;;;;;;7.72;4.10;;;23.40;48.50;;;;;;5014285;28;20052;-65
2023/05/28 12:07:52;;;;;;;7.32;3.80;;;23.30;48.70;;;;;;5013303;28;20042;-66
2023/05/28 12:10:26;;;;;;;7.65;4.30;;;23.40;48.20;;;;;;4996597;28;20125;-65
2023/05/28 12:12:56;;;;;;;7.97;4.50;;;23.30;46.80;;;;;;5012963;28;20049;-65
2023/05/28 12:15:29;;;;;;;8.73;4.40;;;23.30;47.90;;;;;;5012945;28;20176;-66
2023/05/28 12:18:03;;;;;;;8.65;4.45;;;23.30;49.10;;;;;;4996426;28;20143;-66
2023/05/28 12:20:32;;;;;;;7.75;4.68;;;23.20;46.70;;;;;;4981149;28;20049;-66
2023/05/28 12:23:04;;;;;;;7.88;4.80;;;23.40;48.20;;;;;;5014300;28;20490;-66
2023/05/28 12:25:47;;;;;;;8.20;4.18;;;23.50;47.00;;;;;;5012883;28;20125;-66
2023/05/28 12:28:15;;;;;;;7.65;4.30;;;23.70;46.80;;;;;;5013983;28;20038;-66
2023/05/28 12:30:42;;;;;;;8.52;4.18;;;23.50;44.70;;;;;;5012381;28;20508;-66
2023/05/28 12:33:09;;;;;;;8.95;4.47;;;23.40;46.20;;;;;;4996308;28;20057;-66
2023/05/28 12:35:35;;;;;;;8.98;4.03;;;23.50;47.70;;;;;;5012541;28;20045;-66
2023/05/28 12:38:02;;;;;;;7.65;4.20;;;23.40;46.60;;;;;;5012747;28;20084;-66